Time;durP1;ratioP1;P1;durP2;ratioP2;P2;SDS_P1;SDS_P2;PMS_P1;PMS_P2;Temp;Humidity;BMP_temperature;BMP_pressure;BME280_temperature;BME280_humidity;BME280_pressure;Samples;Min_cycle;Max_cycle;Signal;HPM_P1;HPM_P2
2021/01/28 00:01:06;;;;;;;10.00;6.93;;;13.20;81.80;;;;;;4967317;28;80307;-78
2021/01/28 00:03:32;;;;;;;11.52;7.45;;;13.20;81.70;;;;;;4949945;28;82987;-79
2021/01/28 00:05:57;;;;;;;10.80;6.38;;;13.10;81.80;;;;;;4967898;28;80831;-79
2021/01/28 00:08:23;;;;;;;9.05;6.63;;;13.10;82.00;;;;;;4967672;28;80646;-79
2021/01/28 00:10:49;;;;;;;9.98;6.60;;;13.10;82.00;;;;;;4967810;28;80329;-78
2021/01/28 00:13:15;;;;;;;10.07;6.72;;;13.00;82.30;;;;;;4967480;28;80411;-74
2021/01/28 00:15:41;;;;;;;9.98;5.65;;;13.00;82.30;;;;;;4967897;28;80732;-76
2021/01/28 00:18:08;;;;;;;8.80;5.93;;;13.10;82.20;;;;;;4967156;28;79792;-70
2021/01/28 00:20:38;;;;;;;9.80;5.70;;;13.20;82.10;;;;;;4967597;28;80278;-76
2021/01/28 00:23:05;;;;;;;8.65;5.38;;;13.30;82.10;;;;;;4967664;28;80610;-80
2021/01/28 00:25:31;;;;;;;8.88;5.72;;;13.30;82.10;;;;;;4949436;28;80742;-79
2021/01/28 00:27:57;;;;;;;7.78;5.55;;;13.30;81.90;;;;;;4947518;28;82726;-77
2021/01/28 00:30:38;;;;;;;10.43;5.35;;;13.40;81.90;;;;;;4947626;28;80637;-79
2021/01/28 00:33:05;;;;;;;11.90;6.63;;;13.40;81.80;;;;;;4967860;28;80131;-77
2021/01/28 00:35:37;;;;;;;11.90;7.47;;;13.40;81.60;;;;;;4949179;28;83214;-79
2021/01/28 00:38:05;;;;;;;9.15;6.53;;;13.50;81.40;;;;;;4949379;28;81169;-76
2021/01/28 00:40:32;;;;;;;12.65;7.25;;;13.50;81.30;;;;;;4967576;28;80266;-84
2021/01/28 00:42:58;;;;;;;12.38;7.43;;;13.50;81.30;;;;;;4967754;28;80528;-83
2021/01/28 00:45:26;;;;;;;10.70;7.07;;;13.60;81.20;;;;;;4952617;28;82526;-81
2021/01/28 00:47:52;;;;;;;12.80;7.80;;;13.60;81.00;;;;;;4955710;28;83070;-71
2021/01/28 00:50:20;;;;;;;13.13;7.15;;;13.70;80.90;;;;;;4949615;28;82180;-71
2021/01/28 00:52:46;;;;;;;12.65;6.55;;;13.70;80.80;;;;;;4949102;28;80967;-71
2021/01/28 00:55:13;;;;;;;10.27;6.57;;;13.70;80.70;;;;;;4949706;28;80670;-72
2021/01/28 00:57:39;;;;;;;12.60;7.57;;;13.80;80.60;;;;;;4967034;28;80626;-78
2021/01/28 01:00:19;;;;;;;10.55;6.75;;;13.80;80.50;;;;;;4966791;28;79836;-70
2021/01/28 01:02:45;;;;;;;10.27;6.45;;;13.80;80.40;;;;;;4949361;28;81927;-71
2021/01/28 01:05:16;;;;;;;10.13;6.75;;;13.70;80.40;;;;;;4948766;28;82407;-73
2021/01/28 01:07:42;;;;;;;10.02;5.43;;;13.70;80.50;;;;;;4966983;28;80705;-69
2021/01/28 01:10:15;;;;;;;9.35;5.47;;;13.60;80.60;;;;;;4948555;28;82583;-74
2021/01/28 01:12:41;;;;;;;9.45;6.22;;;13.50;80.90;;;;;;4949414;28;81976;-71
2021/01/28 01:15:08;;;;;;;11.57;6.05;;;13.50;80.90;;;;;;4948769;28;80404;-71
2021/01/28 01:17:33;;;;;;;7.75;5.25;;;13.50;80.90;;;;;;4966763;28;79920;-71
2021/01/28 01:20:06;;;;;;;7.47;4.90;;;13.60;80.70;;;;;;4949267;28;80298;-73
2021/01/28 01:22:32;;;;;;;;;;;13.50;80.60;;;;;;4949297;28;81269;-69
2021/01/28 01:24:58;;;;;;;6.80;4.55;;;13.40;80.40;;;;;;4954173;28;78961;-69
2021/01/28 01:27:24;;;;;;;8.68;4.78;;;13.40;81.00;;;;;;4966747;28;80509;-70
2021/01/28 01:29:49;;;;;;;8.23;5.30;;;13.40;80.90;;;;;;4948471;28;82579;-70
2021/01/28 01:32:15;;;;;;;7.53;5.28;;;13.50;80.90;;;;;;4967790;28;80813;-70
2021/01/28 01:34:41;;;;;;;8.25;5.32;;;13.50;80.70;;;;;;4951837;28;80615;-68
2021/01/28 01:37:07;;;;;;;7.53;4.75;;;13.50;80.50;;;;;;4970859;28;80809;-68
2021/01/28 01:39:32;;;;;;;7.20;4.72;;;13.50;80.50;;;;;;4970141;28;80705;-67
2021/01/28 01:41:58;;;;;;;10.52;5.88;;;13.50;80.50;;;;;;4952455;28;80000;-68
2021/01/28 01:44:24;;;;;;;8.00;4.90;;;13.50;80.50;;;;;;4970098;28;80273;-67
2021/01/28 01:46:53;;;;;;;7.38;5.03;;;13.50;80.30;;;;;;4951498;28;81250;-68
2021/01/28 01:49:23;;;;;;;8.77;5.93;;;13.60;80.30;;;;;;4951721;28;82414;-67
2021/01/28 01:51:50;;;;;;;7.78;5.28;;;13.60;80.10;;;;;;4969691;28;80686;-66
2021/01/28 01:54:34;;;;;;;9.77;6.75;;;13.60;80.10;;;;;;4952007;28;80972;-70
2021/01/28 01:57:04;;;;;;;8.52;5.82;;;13.70;79.90;;;;;;4969169;28;80727;-72
2021/01/28 01:59:36;;;;;;;9.05;5.93;;;13.70;80.10;;;;;;4969768;28;79758;-73
2021/01/28 02:02:13;;;;;;;9.82;5.63;;;13.70;80.10;;;;;;4969690;28;80594;-73
2021/01/28 02:04:40;;;;;;;9.70;6.65;;;13.70;80.00;;;;;;4952028;28;83126;-78
2021/01/28 02:07:15;;;;;;;10.70;6.63;;;13.70;80.10;;;;;;4969612;28;80526;-80
2021/01/28 02:09:42;;;;;;;10.55;7.07;;;13.70;80.30;;;;;;4969720;28;80422;-76
2021/01/28 02:12:08;;;;;;;9.40;6.22;;;13.70;80.20;;;;;;4969466;28;80256;-78
2021/01/28 02:14:34;;;;;;;12.02;6.85;;;13.70;80.00;;;;;;4951739;28;82075;-72
2021/01/28 02:17:17;;;;;;;9.57;6.40;;;13.70;79.90;;;;;;4951537;28;79945;-76
2021/01/28 02:20:20;;;;;;;10.10;7.00;;;13.70;79.70;;;;;;4950999;28;82928;-73
2021/01/28 02:22:51;;;;;;;12.57;7.77;;;13.70;79.80;;;;;;4951659;28;83059;-72
2021/01/28 02:25:28;;;;;;;12.07;7.05;;;13.70;80.00;;;;;;4969117;28;80306;-79
2021/01/28 02:28:01;;;;;;;14.55;8.85;;;13.60;80.10;;;;;;4951509;28;81002;-82
2021/01/28 02:30:29;;;;;;;12.90;8.25;;;13.60;80.10;;;;;;4950107;28;81885;-80
2021/01/28 02:32:55;;;;;;;12.82;7.95;;;13.60;80.10;;;;;;4952093;28;80194;-81
2021/01/28 02:35:25;;;;;;;13.27;8.35;;;13.70;80.00;;;;;;4969294;28;80047;-73
2021/01/28 02:37:51;;;;;;;13.10;8.23;;;13.70;80.00;;;;;;4951585;28;83043;-76
2021/01/28 02:40:20;;;;;;;13.77;7.72;;;13.70;80.10;;;;;;4951440;28;79986;-75
2021/01/28 02:42:46;;;;;;;11.63;7.22;;;13.70;80.20;;;;;;4969253;28;80981;-69
2021/01/28 02:45:22;;;;;;;14.18;8.52;;;13.60;80.40;;;;;;4950029;28;80626;-75
2021/01/28 02:47:57;;;;;;;12.32;8.05;;;13.60;80.50;;;;;;4950787;28;80533;-76
2021/01/28 02:50:24;;;;;;;13.75;7.90;;;13.50;80.80;;;;;;4951817;28;83564;-78
2021/01/28 02:52:58;;;;;;;12.15;7.90;;;13.40;81.10;;;;;;4952126;28;82449;-82
2021/01/28 02:55:27;;;;;;;10.25;6.50;;;13.40;81.20;;;;;;4950978;28;80238;-68
2021/01/28 02:57:54;;;;;;;10.98;6.70;;;13.40;81.20;;;;;;4950269;28;82525;-67
2021/01/28 03:00:33;;;;;;;12.10;7.47;;;13.40;81.00;;;;;;4950925;28;80674;-69
2021/01/28 03:03:02;;;;;;;14.25;7.85;;;13.50;80.80;;;;;;4951244;28;83049;-68
2021/01/28 03:05:27;;;;;;;12.00;8.05;;;13.40;80.90;;;;;;4968372;28;80944;-71
2021/01/28 03:07:53;;;;;;;11.95;7.70;;;13.40;81.00;;;;;;4968728;28;80723;-78
2021/01/28 03:10:21;;;;;;;12.45;7.95;;;13.40;81.00;;;;;;4950651;28;80798;-73
2021/01/28 03:12:47;;;;;;;12.98;8.32;;;13.30;81.10;;;;;;4968360;28;81083;-69
2021/01/28 03:15:15;;;;;;;12.63;6.55;;;13.30;81.10;;;;;;4950449;28;83260;-68
2021/01/28 03:17:41;;;;;;;13.82;7.90;;;13.30;81.10;;;;;;4950544;28;80959;-68
2021/01/28 03:20:08;;;;;;;13.82;6.68;;;13.30;81.10;;;;;;4950315;28;82566;-69
2021/01/28 03:22:34;;;;;;;10.32;6.50;;;13.30;81.10;;;;;;4950441;28;82988;-76
2021/01/28 03:25:00;;;;;;;10.00;6.43;;;13.30;80.90;;;;;;4950526;28;81667;-69
2021/01/28 03:27:26;;;;;;;8.25;5.32;;;13.30;80.90;;;;;;4968505;28;80285;-68
2021/01/28 03:29:52;;;;;;;10.43;5.85;;;13.30;80.80;;;;;;4967995;28;80330;-69
2021/01/28 03:32:17;;;;;;;8.18;5.10;;;13.40;80.70;;;;;;4950421;28;83439;-71
2021/01/28 03:34:43;;;;;;;8.57;5.15;;;13.30;80.60;;;;;;4968216;28;80361;-76
2021/01/28 03:37:09;;;;;;;8.90;5.75;;;13.20;80.80;;;;;;4968183;28;80751;-77
2021/01/28 03:39:35;;;;;;;6.75;4.93;;;13.10;81.10;;;;;;4968240;28;79934;-77
2021/01/28 03:42:01;;;;;;;7.25;5.07;;;13.10;81.10;;;;;;4968125;28;79863;-79
2021/01/28 03:44:26;;;;;;;9.10;4.78;;;13.10;81.10;;;;;;4968216;28;80186;-76
2021/01/28 03:46:52;;;;;;;7.55;4.40;;;13.10;80.90;;;;;;4967595;28;80640;-80
2021/01/28 03:49:18;;;;;;;6.53;4.05;;;13.10;80.90;;;;;;4950214;28;82733;-75
2021/01/28 03:51:44;;;;;;;7.03;4.43;;;13.10;81.00;;;;;;4949668;28;82648;-73
2021/01/28 03:54:09;;;;;;;7.78;4.22;;;13.00;81.00;;;;;;4950085;28;80607;-75
2021/01/28 03:56:35;;;;;;;7.93;4.68;;;13.00;81.20;;;;;;4967156;28;80399;-75
2021/01/28 03:59:01;;;;;;;5.63;4.07;;;13.00;81.30;;;;;;4949921;28;80126;-68
2021/01/28 04:01:26;;;;;;;6.88;4.05;;;13.00;81.40;;;;;;4967943;28;80663;-76
2021/01/28 04:03:52;;;;;;;6.53;4.43;;;13.00;81.40;;;;;;4968281;28;80289;-72
2021/01/28 04:06:18;;;;;;;6.15;3.90;;;13.10;81.30;;;;;;4969011;28;80598;-74
2021/01/28 04:08:44;;;;;;;5.45;3.83;;;13.20;81.40;;;;;;4968951;28;80123;-72
2021/01/28 04:11:09;;;;;;;9.48;4.03;;;13.20;81.30;;;;;;4950942;28;84555;-69
2021/01/28 04:13:36;;;;;;;5.82;4.05;;;13.20;81.10;;;;;;4970642;28;80552;-71
2021/01/28 04:16:01;;;;;;;7.63;4.75;;;13.10;81.00;;;;;;4971086;28;80505;-82
2021/01/28 04:18:27;;;;;;;8.10;4.85;;;13.10;81.10;;;;;;4970559;28;80254;-74
2021/01/28 04:20:53;;;;;;;7.05;4.80;;;13.10;81.10;;;;;;4950068;28;81381;-79
2021/01/28 04:23:19;;;;;;;7.22;4.78;;;13.20;81.10;;;;;;4949858;28;81421;-70
2021/01/28 04:25:45;;;;;;;9.30;5.07;;;13.20;81.00;;;;;;4949591;28;82457;-68
2021/01/28 04:28:11;;;;;;;8.10;4.68;;;13.20;81.00;;;;;;4949893;28;82583;-68
2021/01/28 04:30:37;;;;;;;10.32;5.35;;;13.10;81.10;;;;;;4949193;28;82594;-68
2021/01/28 04:33:04;;;;;;;5.75;3.83;;;13.20;81.20;;;;;;4967447;28;80191;-70
2021/01/28 04:35:30;;;;;;;11.05;5.63;;;13.20;81.10;;;;;;4949676;28;81051;-70
2021/01/28 04:37:56;;;;;;;6.35;4.20;;;13.20;81.10;;;;;;4967075;28;80146;-68
2021/01/28 04:40:27;;;;;;;8.68;4.72;;;13.00;81.10;;;;;;4967451;28;80602;-68
2021/01/28 04:42:54;;;;;;;7.60;4.05;;;13.00;81.20;;;;;;4949125;28;80711;-72
2021/01/28 04:45:22;;;;;;;5.95;3.47;;;12.90;81.40;;;;;;4949438;28;80810;-70
2021/01/28 04:47:57;;;;;;;5.07;3.38;;;12.90;81.40;;;;;;4949310;28;82811;-71
2021/01/28 04:50:31;;;;;;;5.40;3.40;;;12.80;81.60;;;;;;4949144;28;81003;-71
2021/01/28 04:53:02;;;;;;;7.90;3.95;;;12.80;81.90;;;;;;4966496;28;82212;-74
2021/01/28 04:55:57;;;;;;;6.40;3.33;;;12.80;82.00;;;;;;4949231;28;80822;-69
2021/01/28 04:58:23;;;;;;;6.28;3.58;;;12.90;81.70;;;;;;4947420;28;82801;-71
2021/01/28 05:00:48;;;;;;;6.57;3.80;;;12.90;81.70;;;;;;4968247;28;80620;-71
2021/01/28 05:03:24;;;;;;;5.65;3.63;;;13.00;81.50;;;;;;4967367;28;79804;-70
2021/01/28 05:05:52;;;;;;;4.55;3.08;;;13.00;81.40;;;;;;4949034;28;80771;-70
2021/01/28 05:08:18;;;;;;;4.25;2.75;;;13.00;81.40;;;;;;4968533;28;80746;-72
2021/01/28 05:10:52;;;;;;;5.40;3.10;;;13.00;81.40;;;;;;4970643;28;81141;-76
2021/01/28 05:13:30;;;;;;;5.90;3.25;;;13.00;81.30;;;;;;4952493;28;82696;-70
2021/01/28 05:15:59;;;;;;;4.63;2.88;;;13.10;81.20;;;;;;4952617;28;80084;-69
2021/01/28 05:18:30;;;;;;;4.65;3.10;;;13.00;81.00;;;;;;4952306;28;80845;-67
2021/01/28 05:21:11;;;;;;;6.45;3.53;;;13.00;81.00;;;;;;4970527;28;81001;-68
2021/01/28 05:23:41;;;;;;;5.13;3.30;;;13.00;80.90;;;;;;4952671;28;82186;-69
2021/01/28 05:26:27;;;;;;;5.53;3.33;;;13.00;80.90;;;;;;4970573;28;80652;-78
2021/01/28 05:28:53;;;;;;;5.55;3.53;;;13.10;80.80;;;;;;4970209;28;80880;-76
2021/01/28 05:31:30;;;;;;;4.47;3.13;;;13.10;81.00;;;;;;4970210;28;80533;-76
2021/01/28 05:34:11;;;;;;;5.80;3.17;;;13.10;81.10;;;;;;4970702;28;80369;-75
2021/01/28 05:36:57;;;;;;;5.93;3.58;;;13.10;81.10;;;;;;4952095;28;82823;-70
2021/01/28 05:39:25;;;;;;;6.35;4.00;;;13.10;81.00;;;;;;4952557;28;82281;-73
2021/01/28 05:42:02;;;;;;;6.53;4.55;;;13.00;81.10;;;;;;4971556;28;79728;-82
2021/01/28 05:44:31;;;;;;;7.78;4.30;;;13.10;81.10;;;;;;4970460;28;80777;-77
2021/01/28 05:47:04;;;;;;;5.95;4.13;;;13.10;81.10;;;;;;4970636;28;79747;-82
2021/01/28 05:49:31;;;;;;;5.28;3.35;;;13.20;81.00;;;;;;4972072;28;80249;-72
2021/01/28 05:52:11;;;;;;;6.28;3.80;;;13.10;80.90;;;;;;4970951;28;80442;-83
2021/01/28 05:54:38;;;;;;;4.78;3.08;;;13.20;80.70;;;;;;4952277;28;82331;-81
2021/01/28 05:57:09;;;;;;;4.55;3.03;;;13.10;80.80;;;;;;4951907;28;83152;-79
2021/01/28 06:00:10;;;;;;;5.20;3.28;;;13.20;80.70;;;;;;4952891;28;82342;-84
2021/01/28 06:03:03;;;;;;;4.88;3.35;;;13.20;80.60;;;;;;4952987;28;82033;-78
2021/01/28 06:05:54;;;;;;;6.20;3.80;;;13.20;80.30;;;;;;4953241;28;81068;-83
2021/01/28 06:08:50;;;;;;;5.25;3.65;;;13.20;80.30;;;;;;4969699;28;81061;-84
2021/01/28 06:11:34;;;;;;;7.22;4.45;;;13.20;80.30;;;;;;4969827;28;80196;-84
2021/01/28 06:14:41;;;;;;;7.57;4.25;;;13.10;80.30;;;;;;4951467;28;83210;-76
2021/01/28 06:17:22;;;;;;;7.22;4.60;;;12.90;80.60;;;;;;4890127;28;80341;-73
2021/01/28 06:20:01;;;;;;;6.80;4.38;;;12.90;81.20;;;;;;4947264;28;81226;-69
2021/01/28 06:22:51;;;;;;;7.50;4.80;;;12.90;81.50;;;;;;4969150;28;80292;-68
2021/01/28 06:25:50;;;;;;;7.30;4.53;;;12.90;81.40;;;;;;4951152;28;81638;-70
2021/01/28 06:28:24;;;;;;;7.28;4.97;;;13.00;81.10;;;;;;4969237;28;80427;-69
2021/01/28 06:31:12;;;;;;;6.05;4.35;;;13.00;81.20;;;;;;4951599;28;82790;-68
2021/01/28 06:33:37;;;;;;;8.70;4.97;;;13.00;80.90;;;;;;4945683;28;81298;-68
2021/01/28 06:36:10;;;;;;;8.10;4.93;;;13.00;81.00;;;;;;4963300;28;81292;-67
2021/01/28 06:38:53;;;;;;;7.40;5.17;;;13.00;81.00;;;;;;4934178;28;82311;-68
2021/01/28 06:41:25;;;;;;;8.35;5.75;;;13.00;81.00;;;;;;4935492;28;82747;-68
2021/01/28 06:44:15;;;;;;;8.05;4.78;;;13.00;81.20;;;;;;4935841;28;81347;-67
2021/01/28 06:46:47;;;;;;;6.10;4.18;;;13.00;81.10;;;;;;4952931;28;81192;-67
2021/01/28 06:49:43;;;;;;;6.32;4.05;;;13.00;81.10;;;;;;4953550;28;81377;-67
2021/01/28 06:52:27;;;;;;;5.65;3.95;;;13.10;80.90;;;;;;4933015;28;82810;-67
2021/01/28 06:55:24;;;;;;;5.78;4.03;;;13.00;81.00;;;;;;4955657;28;80374;-69
2021/01/28 06:58:18;;;;;;;5.70;3.50;;;13.00;80.80;;;;;;4936812;28;82872;-70
2021/01/28 07:00:50;;;;;;;6.32;4.00;;;13.00;80.70;;;;;;4925466;28;82056;-70
2021/01/28 07:03:16;;;;;;;5.90;4.18;;;12.90;80.90;;;;;;4954606;28;81555;-66
2021/01/28 07:06:12;;;;;;;6.43;4.03;;;12.90;80.80;;;;;;4936731;28;82373;-67
2021/01/28 07:09:12;;;;;;;7.32;4.50;;;13.00;80.80;;;;;;4936979;28;83104;-73
2021/01/28 07:11:43;;;;;;;7.47;4.90;;;13.00;80.80;;;;;;4936074;28;83929;-68
2021/01/28 07:14:16;;;;;;;7.43;5.00;;;12.90;81.00;;;;;;4954407;28;81295;-70
2021/01/28 07:17:17;;;;;;;7.38;4.57;;;13.00;81.00;;;;;;4955103;28;81772;-76
2021/01/28 07:19:54;;;;;;;8.40;4.88;;;13.00;81.00;;;;;;4936932;28;82681;-78
2021/01/28 07:22:33;;;;;;;7.18;4.90;;;13.10;81.10;;;;;;4955883;28;82175;-70
2021/01/28 07:25:26;;;;;;;9.20;4.85;;;13.10;81.10;;;;;;4942333;28;81894;-65
2021/01/28 07:28:03;;;;;;;11.18;5.35;;;13.10;81.10;;;;;;4957485;28;80196;-67
2021/01/28 07:30:49;;;;;;;7.80;4.90;;;13.10;81.10;;;;;;4953987;28;80309;-68
2021/01/28 07:33:23;;;;;;;8.10;5.10;;;13.00;81.30;;;;;;4935207;28;81333;-69
2021/01/28 07:35:55;;;;;;;8.05;4.97;;;13.00;81.60;;;;;;4934468;28;82954;-69
2021/01/28 07:38:27;;;;;;;8.25;5.22;;;12.90;81.80;;;;;;4935448;28;81494;-68
2021/01/28 07:41:02;;;;;;;8.75;5.50;;;12.90;81.90;;;;;;4954170;28;81620;-70
2021/01/28 07:43:33;;;;;;;7.50;4.65;;;12.90;81.90;;;;;;4954476;28;81699;-69
2021/01/28 07:46:28;;;;;;;7.78;5.32;;;12.90;81.80;;;;;;4954511;28;81141;-69
2021/01/28 07:49:17;;;;;;;7.75;4.60;;;12.90;81.80;;;;;;4934115;28;82689;-69
2021/01/28 07:51:52;;;;;;;7.78;4.85;;;12.90;81.80;;;;;;4935469;28;82717;-69
2021/01/28 07:54:24;;;;;;;7.65;4.10;;;12.80;82.10;;;;;;4954180;28;80819;-69
2021/01/28 07:56:59;;;;;;;8.85;5.22;;;12.90;82.10;;;;;;4936553;28;81614;-69
2021/01/28 07:59:46;;;;;;;7.57;4.72;;;12.90;81.90;;;;;;4916859;28;81016;-70
2021/01/28 08:02:29;;;;;;;8.27;4.75;;;13.00;81.80;;;;;;4936921;28;80989;-70
2021/01/28 08:05:04;;;;;;;7.85;4.95;;;13.00;82.00;;;;;;4950328;28;81496;-74
2021/01/28 08:07:32;;;;;;;7.90;4.90;;;13.00;82.10;;;;;;4941483;28;82175;-70
2021/01/28 08:10:02;;;;;;;9.25;6.47;;;13.00;81.90;;;;;;4941016;28;81040;-70
2021/01/28 08:12:52;;;;;;;8.32;5.30;;;13.10;81.70;;;;;;4920403;28;81620;-72
2021/01/28 08:15:24;;;;;;;9.27;5.40;;;13.10;81.50;;;;;;4930572;28;81814;-68
2021/01/28 08:18:15;;;;;;;7.20;4.63;;;13.00;81.70;;;;;;4924545;28;81279;-69
2021/01/28 08:20:41;;;;;;;9.90;5.03;;;13.10;81.30;;;;;;4948793;28;81759;-69
2021/01/28 08:23:21;;;;;;;8.30;5.00;;;13.10;81.20;;;;;;4945208;28;80486;-72
2021/01/28 08:25:59;;;;;;;7.40;4.53;;;13.10;81.20;;;;;;4947518;28;82404;-72
2021/01/28 08:28:29;;;;;;;5.38;3.53;;;13.10;81.10;;;;;;4935430;28;80772;-69
2021/01/28 08:31:05;;;;;;;6.70;4.43;;;13.10;80.90;;;;;;4922042;28;82243;-69
2021/01/28 08:33:31;;;;;;;7.32;4.63;;;13.10;80.60;;;;;;4934596;28;81962;-69
2021/01/28 08:36:01;;;;;;;7.38;4.20;;;13.00;80.50;;;;;;4932579;28;80254;-69
2021/01/28 08:38:29;;;;;;;7.88;4.45;;;13.00;80.50;;;;;;4924355;28;81179;-69
2021/01/28 08:41:03;;;;;;;6.70;3.60;;;13.10;80.50;;;;;;4916561;28;81476;-68
2021/01/28 08:43:29;;;;;;;5.68;3.03;;;13.10;80.30;;;;;;4933997;28;81751;-68
2021/01/28 08:46:22;;;;;;;5.22;3.10;;;13.20;79.90;;;;;;4934837;28;83288;-68
2021/01/28 08:48:48;;;;;;;5.03;2.80;;;13.40;79.40;;;;;;4915453;28;82637;-69
2021/01/28 08:51:25;;;;;;;4.30;3.08;;;13.40;79.20;;;;;;4928419;28;82274;-71
2021/01/28 08:54:25;;;;;;;4.95;2.67;;;13.40;79.10;;;;;;4930695;28;82341;-69
2021/01/28 08:56:55;;;;;;;4.72;2.70;;;13.50;79.00;;;;;;4913990;28;82989;-69
2021/01/28 08:59:29;;;;;;;4.50;3.20;;;13.50;79.00;;;;;;4933449;28;83115;-71
2021/01/28 09:01:55;;;;;;;4.10;2.55;;;13.60;78.80;;;;;;4934882;28;82159;-72
2021/01/28 09:04:35;;;;;;;5.57;3.67;;;13.60;78.50;;;;;;4934981;28;82735;-68
2021/01/28 09:07:00;;;;;;;5.53;3.65;;;13.70;78.10;;;;;;4952928;28;81432;-69
2021/01/28 09:09:28;;;;;;;6.25;3.65;;;13.70;78.00;;;;;;4953605;28;81045;-70
2021/01/28 09:12:23;;;;;;;6.00;3.30;;;13.70;77.90;;;;;;4935150;28;81268;-69
2021/01/28 09:14:50;;;;;;;5.85;3.40;;;13.80;77.70;;;;;;4934919;28;81910;-69
2021/01/28 09:17:30;;;;;;;5.70;3.80;;;13.80;77.80;;;;;;4919094;28;82431;-72
2021/01/28 09:19:59;;;;;;;7.72;3.58;;;13.90;77.80;;;;;;4953124;28;81074;-68
2021/01/28 09:22:35;;;;;;;6.03;4.03;;;13.90;77.70;;;;;;4953350;28;81014;-70
2021/01/28 09:25:13;;;;;;;5.13;3.42;;;14.00;77.50;;;;;;4953068;28;81775;-72
2021/01/28 09:27:39;;;;;;;5.82;4.00;;;14.00;77.20;;;;;;4934651;28;81645;-69
2021/01/28 09:30:33;;;;;;;7.32;4.38;;;13.90;77.20;;;;;;4935096;28;81541;-70
2021/01/28 09:32:58;;;;;;;6.40;4.07;;;13.90;77.00;;;;;;4949418;28;82428;-69
2021/01/28 09:35:28;;;;;;;6.18;3.92;;;13.80;77.50;;;;;;4933005;28;82067;-69
2021/01/28 09:38:13;;;;;;;12.50;4.82;;;13.80;77.70;;;;;;4935016;28;82062;-72
2021/01/28 09:40:45;;;;;;;6.70;4.60;;;13.80;77.80;;;;;;4935213;28;81934;-72
2021/01/28 09:43:25;;;;;;;6.97;4.40;;;13.90;77.50;;;;;;4948041;28;80988;-72
2021/01/28 09:46:12;;;;;;;8.23;5.35;;;13.90;77.50;;;;;;4934573;28;83374;-72
2021/01/28 09:48:38;;;;;;;8.20;4.60;;;13.90;77.60;;;;;;4934755;28;81442;-73
2021/01/28 09:51:06;;;;;;;7.43;4.93;;;13.90;77.70;;;;;;4953602;28;82599;-72
2021/01/28 09:53:33;;;;;;;8.07;4.60;;;14.00;77.50;;;;;;4935530;28;81788;-72
2021/01/28 09:55:59;;;;;;;7.18;4.50;;;14.00;77.40;;;;;;4956435;28;81573;-73
2021/01/28 09:58:26;;;;;;;8.85;5.00;;;14.00;77.10;;;;;;4937405;28;82385;-72
2021/01/28 10:00:52;;;;;;;7.03;4.57;;;14.00;77.40;;;;;;4936374;28;81876;-71
2021/01/28 10:03:19;;;;;;;11.07;4.70;;;14.00;77.30;;;;;;4937953;28;81507;-72
2021/01/28 10:05:45;;;;;;;8.15;5.32;;;14.10;77.20;;;;;;4938252;28;81316;-71
2021/01/28 10:08:11;;;;;;;10.13;5.22;;;14.20;77.00;;;;;;4937776;28;82872;-71
2021/01/28 10:10:38;;;;;;;9.05;5.60;;;14.30;76.90;;;;;;4937085;28;81259;-74
2021/01/28 10:13:11;;;;;;;8.65;4.35;;;14.30;76.80;;;;;;4937854;28;82447;-71
2021/01/28 10:15:37;;;;;;;8.82;5.22;;;14.40;76.60;;;;;;4937063;28;82949;-72
2021/01/28 10:18:03;;;;;;;8.25;5.32;;;14.30;76.60;;;;;;4937918;28;82244;-71
2021/01/28 10:20:29;;;;;;;7.53;5.03;;;14.30;76.30;;;;;;4955751;28;81219;-72
2021/01/28 10:23:01;;;;;;;9.40;5.85;;;14.30;76.30;;;;;;4937487;28;81341;-74
2021/01/28 10:25:27;;;;;;;10.07;5.03;;;14.30;76.40;;;;;;4937163;28;83869;-73
2021/01/28 10:27:53;;;;;;;7.95;5.20;;;14.40;76.20;;;;;;4937193;28;81579;-72
2021/01/28 10:30:22;;;;;;;9.00;5.05;;;14.40;76.00;;;;;;4955570;28;81328;-72
2021/01/28 10:32:49;;;;;;;8.38;4.85;;;14.40;75.70;;;;;;4954548;28;82092;-72
2021/01/28 10:35:19;;;;;;;6.80;4.22;;;14.40;75.40;;;;;;4936941;28;82505;-73
2021/01/28 10:37:45;;;;;;;7.20;4.47;;;14.40;75.20;;;;;;4936772;28;81522;-72
2021/01/28 10:40:12;;;;;;;7.53;4.95;;;14.40;75.10;;;;;;4955422;28;82494;-72
2021/01/28 10:42:38;;;;;;;7.70;5.00;;;14.50;75.00;;;;;;4955492;28;81944;-74
2021/01/28 10:45:07;;;;;;;7.22;4.90;;;14.60;75.00;;;;;;4937530;28;81128;-71
2021/01/28 10:47:33;;;;;;;8.15;5.30;;;14.70;74.70;;;;;;4955445;28;80989;-72
2021/01/28 10:49:59;;;;;;;7.82;4.95;;;14.80;74.50;;;;;;4938043;28;81858;-73
2021/01/28 10:52:25;;;;;;;8.07;5.32;;;14.90;74.40;;;;;;4937560;28;82073;-72
2021/01/28 10:54:50;;;;;;;8.73;5.22;;;14.90;74.20;;;;;;4937066;28;83699;-72
2021/01/28 10:57:16;;;;;;;8.40;5.68;;;14.90;74.10;;;;;;4935571;28;81793;-71
2021/01/28 10:59:42;;;;;;;9.43;5.70;;;14.90;74.30;;;;;;4954804;28;81067;-72
2021/01/28 11:02:08;;;;;;;9.07;5.45;;;15.00;74.10;;;;;;4935821;28;81773;-74
2021/01/28 11:04:33;;;;;;;11.98;5.70;;;15.00;73.90;;;;;;4934777;28;81860;-72
2021/01/28 11:06:59;;;;;;;11.18;6.50;;;15.10;73.80;;;;;;4936572;28;81259;-71
2021/01/28 11:09:25;;;;;;;8.63;5.28;;;15.10;73.50;;;;;;4936791;28;83878;-73
2021/01/28 11:11:51;;;;;;;9.18;6.70;;;15.20;73.30;;;;;;4936952;28;81656;-72
2021/01/28 11:14:17;;;;;;;9.02;5.72;;;15.20;73.10;;;;;;4936063;28;83341;-73
2021/01/28 11:16:42;;;;;;;11.07;6.18;;;15.30;72.90;;;;;;4936513;28;82573;-73
2021/01/28 11:19:08;;;;;;;10.77;5.50;;;15.30;72.80;;;;;;4954666;28;81232;-72
2021/01/28 11:21:34;;;;;;;10.25;5.60;;;15.30;72.50;;;;;;4954733;28;81492;-73
2021/01/28 11:24:00;;;;;;;9.50;5.13;;;15.20;72.60;;;;;;4936546;28;82409;-72
2021/01/28 11:26:26;;;;;;;10.05;6.32;;;15.20;72.90;;;;;;4936170;28;81703;-73
2021/01/28 11:28:51;;;;;;;9.40;6.22;;;15.20;72.90;;;;;;4955038;28;81297;-72
2021/01/28 11:31:17;;;;;;;11.20;6.72;;;15.10;73.00;;;;;;4936408;28;80678;-72
2021/01/28 11:33:43;;;;;;;12.93;7.97;;;15.00;73.30;;;;;;4954319;28;81851;-72
2021/01/28 11:36:09;;;;;;;13.18;7.97;;;15.00;73.40;;;;;;4954668;28;81555;-72
2021/01/28 11:38:35;;;;;;;11.10;6.65;;;15.10;73.50;;;;;;4936034;28;83818;-73
2021/01/28 11:41:03;;;;;;;11.02;6.63;;;15.00;73.50;;;;;;4954788;28;81767;-73
2021/01/28 11:43:30;;;;;;;11.10;7.50;;;15.00;73.80;;;;;;4936464;28;83481;-73
2021/01/28 11:45:56;;;;;;;10.57;6.68;;;14.90;74.10;;;;;;4935577;28;83871;-72
2021/01/28 11:48:22;;;;;;;10.77;7.47;;;14.90;74.30;;;;;;4935373;28;82931;-72
2021/01/28 11:50:48;;;;;;;15.63;7.90;;;14.70;74.60;;;;;;4936052;28;81942;-73
2021/01/28 11:53:13;;;;;;;10.75;6.72;;;14.60;74.90;;;;;;4936395;28;82543;-72
2021/01/28 11:55:39;;;;;;;11.55;7.53;;;14.80;74.70;;;;;;4934335;28;82600;-72
2021/01/28 11:58:05;;;;;;;21.55;9.57;;;14.80;74.60;;;;;;4934306;28;81152;-73
2021/01/28 12:00:31;;;;;;;11.63;6.88;;;14.90;74.40;;;;;;4936432;28;82069;-71
2021/01/28 12:02:57;;;;;;;12.10;7.43;;;14.90;74.10;;;;;;4953519;28;81951;-73
2021/01/28 12:05:26;;;;;;;15.70;7.95;;;15.10;73.90;;;;;;4935626;28;82289;-74
2021/01/28 12:07:57;;;;;;;12.63;8.52;;;15.20;73.50;;;;;;4936229;28;81906;-69
2021/01/28 12:10:26;;;;;;;14.48;8.75;;;15.20;73.50;;;;;;4954308;28;82076;-71
2021/01/28 12:12:51;;;;;;;12.32;7.85;;;15.30;73.40;;;;;;4919462;28;83047;-70
2021/01/28 12:15:19;;;;;;;11.82;7.65;;;15.30;73.20;;;;;;4934175;28;81542;-73
2021/01/28 12:17:46;;;;;;;14.88;9.05;;;15.30;73.10;;;;;;4934142;28;82459;-72
2021/01/28 12:20:14;;;;;;;15.02;9.35;;;15.40;73.10;;;;;;4954072;28;81564;-73
2021/01/28 12:22:39;;;;;;;15.95;9.55;;;15.40;73.20;;;;;;4935181;28;84564;-74
2021/01/28 12:25:07;;;;;;;13.25;8.90;;;15.50;73.10;;;;;;4935729;28;81386;-69
2021/01/28 12:27:34;;;;;;;13.77;8.88;;;15.60;72.90;;;;;;4936099;28;80553;-67
2021/01/28 12:30:03;;;;;;;14.25;8.32;;;15.60;72.80;;;;;;4935718;28;81139;-71
2021/01/28 12:32:29;;;;;;;12.20;6.47;;;15.70;72.50;;;;;;4935560;28;81917;-69
2021/01/28 12:34:55;;;;;;;12.65;6.93;;;15.90;72.00;;;;;;4953824;28;81102;-72
2021/01/28 12:37:22;;;;;;;11.95;7.68;;;16.00;71.40;;;;;;4936376;28;81282;-70
2021/01/28 12:39:47;;;;;;;11.48;7.03;;;16.10;70.90;;;;;;4935812;28;82047;-71
2021/01/28 12:42:13;;;;;;;12.32;7.25;;;16.10;70.70;;;;;;4953425;28;80757;-71
2021/01/28 12:44:39;;;;;;;13.85;7.50;;;16.00;70.70;;;;;;4935666;28;82115;-71
2021/01/28 12:47:06;;;;;;;9.68;6.57;;;15.90;70.80;;;;;;4935184;28;82214;-70
2021/01/28 12:49:32;;;;;;;8.52;6.45;;;15.90;71.00;;;;;;4953606;28;82069;-69
2021/01/28 12:51:58;;;;;;;12.25;7.50;;;15.80;71.10;;;;;;4935593;28;83360;-69
2021/01/28 12:54:25;;;;;;;13.35;8.02;;;15.90;71.20;;;;;;4934921;28;80958;-69
2021/01/28 12:56:51;;;;;;;13.43;7.88;;;15.90;70.90;;;;;;4934909;28;81519;-71
2021/01/28 12:59:17;;;;;;;12.88;7.43;;;15.90;71.00;;;;;;4935120;28;82438;-68
2021/01/28 13:01:43;;;;;;;14.40;8.27;;;15.70;71.40;;;;;;4953561;28;82234;-67
2021/01/28 13:04:08;;;;;;;13.93;8.18;;;15.70;71.70;;;;;;4935290;28;82446;-69